Time;durP1;ratioP1;P1;durP2;ratioP2;P2;SDS_P1;SDS_P2;PMS_P1;PMS_P2;Temp;Humidity;BMP_temperature;BMP_pressure;BME280_temperature;BME280_humidity;BME280_pressure;Samples;Min_cycle;Max_cycle;Signal;HPM_P1;HPM_P2
2021/08/15 00:01:04;;;;;;;3.28;1.67;;;15.60;99.90;;;;;;4995963;28;20207;-80
2021/08/15 00:03:30;;;;;;;3.28;1.80;;;15.50;99.90;;;;;;4994193;28;20198;-80
2021/08/15 00:05:55;;;;;;;2.05;1.60;;;15.50;99.90;;;;;;4996136;28;20687;-80
2021/08/15 00:08:21;;;;;;;3.30;1.90;;;15.50;99.90;;;;;;4995088;28;20573;-80
2021/08/15 00:10:47;;;;;;;2.30;1.73;;;15.50;99.90;;;;;;4996625;28;20184;-80
2021/08/15 00:13:12;;;;;;;2.42;1.70;;;15.40;99.90;;;;;;4995306;28;20199;-79
2021/08/15 00:15:38;;;;;;;3.33;1.83;;;15.40;99.90;;;;;;4988660;28;20200;-80
2021/08/15 00:18:04;;;;;;;2.90;1.60;;;15.30;99.90;;;;;;4992489;28;20568;-80
2021/08/15 00:20:29;;;;;;;3.03;1.77;;;15.30;99.90;;;;;;4994590;28;20223;-80
2021/08/15 00:22:56;;;;;;;3.75;2.00;;;15.20;99.90;;;;;;4995305;28;20240;-80
2021/08/15 00:25:22;;;;;;;2.47;2.13;;;15.20;99.90;;;;;;4995556;28;20192;-80
2021/08/15 00:27:48;;;;;;;1.75;1.50;;;15.20;99.90;;;;;;4995088;28;20219;-80
2021/08/15 00:30:15;;;;;;;2.95;1.92;;;15.10;99.90;;;;;;4994863;28;20217;-81
2021/08/15 00:32:41;;;;;;;2.83;1.60;;;15.00;99.90;;;;;;4995754;28;20549;-81
2021/08/15 00:35:07;;;;;;;4.20;2.17;;;15.10;99.90;;;;;;4994987;28;20528;-81
2021/08/15 00:37:34;;;;;;;2.08;1.65;;;15.10;99.90;;;;;;4995826;28;20259;-81
2021/08/15 00:40:00;;;;;;;2.42;1.77;;;15.10;99.90;;;;;;4995187;28;20199;-80
2021/08/15 00:42:25;;;;;;;2.35;1.85;;;15.00;99.90;;;;;;4995848;28;20176;-80
2021/08/15 00:44:52;;;;;;;2.38;1.73;;;15.00;99.90;;;;;;4993583;28;20593;-80
2021/08/15 00:47:18;;;;;;;1.52;1.42;;;15.00;99.90;;;;;;4995496;28;20682;-81
2021/08/15 00:49:44;;;;;;;2.22;1.52;;;15.00;99.90;;;;;;4994529;28;20204;-80
2021/08/15 00:52:09;;;;;;;3.83;1.80;;;14.90;99.90;;;;;;4992369;28;20364;-80
2021/08/15 00:54:35;;;;;;;2.13;1.58;;;14.90;99.90;;;;;;4992209;28;20185;-79
2021/08/15 00:57:01;;;;;;;2.85;2.03;;;14.90;99.90;;;;;;4996261;28;20247;-80
2021/08/15 00:59:27;;;;;;;2.85;1.80;;;14.90;99.90;;;;;;4995135;28;20191;-80
2021/08/15 01:01:54;;;;;;;2.65;1.60;;;14.80;99.90;;;;;;4994421;28;20646;-80
2021/08/15 01:04:26;;;;;;;2.70;1.90;;;14.80;99.90;;;;;;4993923;28;20208;-80
2021/08/15 01:06:52;;;;;;;6.00;2.33;;;14.80;99.90;;;;;;4994903;28;20200;-78
2021/08/15 01:09:22;;;;;;;5.28;2.13;;;14.80;99.90;;;;;;4993008;28;20184;-80
2021/08/15 01:11:48;;;;;;;7.82;1.95;;;14.80;99.90;;;;;;4993542;28;20188;-79
2021/08/15 01:14:14;;;;;;;3.03;2.05;;;14.80;99.90;;;;;;4992779;28;20278;-80
2021/08/15 01:16:42;;;;;;;4.22;2.25;;;14.80;99.90;;;;;;4992669;28;20292;-80
2021/08/15 01:19:09;;;;;;;4.05;2.60;;;14.80;99.90;;;;;;4995227;28;20529;-80
2021/08/15 01:21:37;;;;;;;3.72;2.10;;;14.80;99.90;;;;;;4995680;28;20180;-80
2021/08/15 01:24:04;;;;;;;3.53;2.15;;;14.80;99.90;;;;;;4995175;28;20184;-77
2021/08/15 01:26:30;;;;;;;3.20;2.13;;;14.70;99.90;;;;;;4994321;28;20192;-79
2021/08/15 01:28:56;;;;;;;3.13;2.25;;;14.60;99.90;;;;;;4994852;28;20716;-80
2021/08/15 01:31:23;;;;;;;3.03;2.10;;;14.50;99.90;;;;;;4995224;28;20188;-79
2021/08/15 01:33:49;;;;;;;2.60;2.10;;;14.50;99.90;;;;;;4992864;28;20192;-78
2021/08/15 01:36:17;;;;;;;2.70;2.38;;;14.40;99.90;;;;;;4994886;28;20208;-78
2021/08/15 01:38:44;;;;;;;2.60;2.35;;;14.30;99.90;;;;;;5009480;28;20207;-79
2021/08/15 01:41:10;;;;;;;3.28;2.35;;;14.30;99.90;;;;;;4992859;28;20188;-80
2021/08/15 01:43:51;;;;;;;4.85;2.50;;;14.30;99.90;;;;;;4994202;28;20184;-80
2021/08/15 01:46:18;;;;;;;2.88;2.25;;;14.10;99.90;;;;;;4992282;28;20206;-80
2021/08/15 01:48:44;;;;;;;4.38;2.25;;;14.00;99.90;;;;;;4991695;28;20211;-80
2021/08/15 01:51:10;;;;;;;4.60;2.20;;;14.00;99.90;;;;;;4993958;28;20188;-79
2021/08/15 01:53:36;;;;;;;4.35;2.30;;;14.10;99.90;;;;;;4994598;28;20662;-79
2021/08/15 01:56:02;;;;;;;3.08;2.25;;;13.90;99.90;;;;;;4992155;28;20250;-80
2021/08/15 01:58:28;;;;;;;3.85;2.40;;;13.80;99.90;;;;;;4993726;28;20230;-79
2021/08/15 02:00:54;;;;;;;2.25;1.80;;;13.80;99.90;;;;;;4993630;28;21124;-79
2021/08/15 02:03:19;;;;;;;2.90;2.03;;;13.80;99.90;;;;;;4992631;28;20251;-78
2021/08/15 02:05:45;;;;;;;5.05;2.90;;;13.80;99.90;;;;;;4994047;28;20227;-80
2021/08/15 02:08:10;;;;;;;3.00;2.40;;;13.80;99.90;;;;;;4994187;28;20621;-78
2021/08/15 02:10:37;;;;;;;5.07;2.50;;;13.80;99.90;;;;;;4993799;28;20192;-79
2021/08/15 02:13:05;;;;;;;3.95;2.40;;;13.80;99.90;;;;;;5000237;28;20190;-80
2021/08/15 02:15:32;;;;;;;4.43;2.75;;;13.70;99.90;;;;;;4993785;28;20222;-78
2021/08/15 02:17:59;;;;;;;4.47;2.58;;;13.70;99.90;;;;;;4993495;28;20877;-80
2021/08/15 02:20:25;;;;;;;4.60;2.78;;;13.70;99.90;;;;;;4992905;28;20234;-80
2021/08/15 02:22:51;;;;;;;2.95;2.20;;;13.50;99.90;;;;;;4991793;28;21057;-79
2021/08/15 02:25:18;;;;;;;3.20;2.50;;;13.30;99.90;;;;;;4992537;28;20247;-80
2021/08/15 02:27:44;;;;;;;4.25;3.30;;;13.40;99.90;;;;;;4993559;28;20315;-80
2021/08/15 02:30:12;;;;;;;4.22;3.47;;;13.30;99.90;;;;;;4993071;28;20678;-80
2021/08/15 02:32:39;;;;;;;5.22;2.60;;;13.30;99.90;;;;;;4992938;28;20188;-80
2021/08/15 02:35:06;;;;;;;5.53;2.90;;;13.40;99.90;;;;;;4990800;28;20184;-79
2021/08/15 02:37:32;;;;;;;5.97;3.30;;;13.40;99.90;;;;;;4992111;28;20235;-79
2021/08/15 02:40:02;;;;;;;4.88;3.17;;;13.30;99.90;;;;;;4991078;28;20199;-79
2021/08/15 02:42:28;;;;;;;5.60;2.92;;;13.40;99.90;;;;;;4992819;28;20195;-78
2021/08/15 02:44:54;;;;;;;2.47;2.15;;;13.30;99.90;;;;;;4990902;28;20234;-78
2021/08/15 02:47:20;;;;;;;3.75;2.60;;;13.20;99.90;;;;;;4993157;28;20212;-80
2021/08/15 02:49:45;;;;;;;5.03;2.80;;;13.00;99.90;;;;;;4991819;28;20184;-81
2021/08/15 02:52:11;;;;;;;4.38;2.53;;;13.00;99.90;;;;;;4991262;28;20184;-80
2021/08/15 02:54:37;;;;;;;4.13;2.92;;;13.10;99.90;;;;;;4992816;28;20210;-80
2021/08/15 02:57:04;;;;;;;3.45;2.33;;;13.10;99.90;;;;;;4993302;28;20204;-80
2021/08/15 02:59:29;;;;;;;4.00;2.90;;;13.10;99.90;;;;;;4993713;28;20188;-80
2021/08/15 03:01:55;;;;;;;5.22;2.78;;;13.00;99.90;;;;;;4993049;28;20666;-79
2021/08/15 03:04:21;;;;;;;3.67;2.67;;;13.10;99.90;;;;;;4991766;28;20854;-80
2021/08/15 03:06:46;;;;;;;6.03;3.05;;;13.20;99.90;;;;;;4993514;28;20188;-79
2021/08/15 03:09:12;;;;;;;4.60;2.55;;;13.20;99.90;;;;;;4993213;28;20193;-80
2021/08/15 03:11:38;;;;;;;3.83;2.70;;;13.10;99.90;;;;;;4992317;28;20188;-80
2021/08/15 03:14:03;;;;;;;4.80;2.97;;;13.00;99.90;;;;;;4992244;28;20673;-79
2021/08/15 03:16:29;;;;;;;5.05;3.05;;;13.00;99.90;;;;;;4992703;28;20295;-79
2021/08/15 03:18:55;;;;;;;5.13;3.28;;;13.00;99.90;;;;;;4990460;28;20220;-79
2021/08/15 03:21:20;;;;;;;4.35;2.97;;;13.10;99.90;;;;;;4991451;28;20274;-78
2021/08/15 03:23:46;;;;;;;4.38;2.75;;;13.10;99.90;;;;;;4990952;28;20660;-80
2021/08/15 03:26:11;;;;;;;5.03;3.25;;;13.10;99.90;;;;;;4990307;28;20184;-80
2021/08/15 03:28:38;;;;;;;4.07;2.78;;;13.00;99.90;;;;;;4989676;28;20258;-79
2021/08/15 03:31:04;;;;;;;5.55;2.70;;;12.90;99.90;;;;;;4987857;28;20269;-81
2021/08/15 03:33:30;;;;;;;4.00;2.67;;;13.00;99.90;;;;;;4989370;28;20211;-78
2021/08/15 03:35:55;;;;;;;4.63;3.38;;;13.00;99.90;;;;;;4988189;28;20699;-78
2021/08/15 03:38:21;;;;;;;4.32;3.10;;;13.10;99.90;;;;;;4989685;28;20623;-78
2021/08/15 03:40:47;;;;;;;4.43;2.83;;;13.10;99.90;;;;;;4988949;28;20204;-79
2021/08/15 03:43:12;;;;;;;3.55;3.03;;;13.20;99.90;;;;;;4988722;28;20274;-80
2021/08/15 03:45:39;;;;;;;4.25;3.13;;;13.10;99.90;;;;;;4986358;28;20184;-79
2021/08/15 03:48:07;;;;;;;6.32;3.28;;;13.20;99.90;;;;;;4987784;28;20215;-79
2021/08/15 03:50:33;;;;;;;4.40;3.20;;;13.30;99.90;;;;;;4988295;28;20557;-79
2021/08/15 03:52:59;;;;;;;4.10;3.05;;;13.30;99.90;;;;;;4988174;28;20207;-80
2021/08/15 03:55:24;;;;;;;4.22;2.83;;;13.20;99.90;;;;;;4988305;28;20303;-78
2021/08/15 03:57:50;;;;;;;7.47;2.70;;;13.30;99.90;;;;;;4986652;28;20206;-78
2021/08/15 04:00:16;;;;;;;5.40;3.00;;;13.20;99.90;;;;;;4986639;28;20299;-79
2021/08/15 04:02:42;;;;;;;4.32;3.13;;;13.20;99.90;;;;;;4988309;28;20564;-79
2021/08/15 04:05:08;;;;;;;5.82;2.85;;;13.30;99.90;;;;;;4985769;28;20187;-80
2021/08/15 04:07:33;;;;;;;5.47;3.45;;;13.20;99.90;;;;;;4987863;28;20200;-79
2021/08/15 04:10:00;;;;;;;6.28;3.28;;;13.30;99.90;;;;;;4986369;28;20191;-78
2021/08/15 04:12:25;;;;;;;6.53;2.67;;;13.30;99.90;;;;;;4989527;28;20838;-79
2021/08/15 04:14:51;;;;;;;3.88;2.47;;;13.20;99.90;;;;;;4988004;28;20192;-79
2021/08/15 04:17:16;;;;;;;3.13;2.67;;;13.00;99.90;;;;;;4987602;28;20468;-79
2021/08/15 04:19:45;;;;;;;5.15;2.05;;;13.00;99.90;;;;;;4986996;28;20199;-79
2021/08/15 04:22:11;;;;;;;4.43;2.65;;;12.70;99.90;;;;;;4988400;28;20184;-78
2021/08/15 04:24:37;;;;;;;4.88;3.22;;;12.60;99.90;;;;;;4987306;28;20562;-79
2021/08/15 04:27:03;;;;;;;3.53;2.45;;;12.60;99.90;;;;;;4989328;28;20188;-80
2021/08/15 04:29:29;;;;;;;3.25;2.55;;;12.60;99.90;;;;;;4987333;28;20227;-79
2021/08/15 04:31:55;;;;;;;4.38;2.53;;;12.50;99.90;;;;;;4991053;28;20188;-79
2021/08/15 04:34:20;;;;;;;3.45;2.20;;;12.50;99.90;;;;;;4991739;28;20199;-80
2021/08/15 04:36:46;;;;;;;5.80;2.85;;;12.50;99.90;;;;;;4990923;28;20299;-78
2021/08/15 04:39:11;;;;;;;4.55;2.92;;;12.50;99.90;;;;;;4991855;28;20219;-80
2021/08/15 04:41:37;;;;;;;3.28;2.65;;;12.50;99.90;;;;;;4992055;28;20188;-79
2021/08/15 04:44:03;;;;;;;3.88;2.50;;;12.60;99.90;;;;;;4991895;28;20187;-78
2021/08/15 04:46:29;;;;;;;3.80;2.78;;;12.80;99.90;;;;;;4990736;28;20184;-78
2021/08/15 04:48:54;;;;;;;4.00;2.55;;;13.00;99.90;;;;;;4990282;28;20207;-79
2021/08/15 04:51:20;;;;;;;2.95;2.40;;;13.30;99.90;;;;;;4991298;28;20638;-79
2021/08/15 04:53:45;;;;;;;5.10;2.75;;;13.40;99.90;;;;;;4990968;28;20223;-79
2021/08/15 04:56:11;;;;;;;4.47;2.63;;;13.70;99.90;;;;;;4991471;28;20212;-78
2021/08/15 04:58:37;;;;;;;6.55;2.83;;;13.80;99.90;;;;;;4981605;28;20214;-79
2021/08/15 05:01:03;;;;;;;5.60;2.97;;;13.90;99.90;;;;;;4991598;28;20184;-79
2021/08/15 05:03:29;;;;;;;7.88;3.28;;;14.10;99.90;;;;;;4989684;28;20538;-79
2021/08/15 05:05:54;;;;;;;7.57;3.40;;;14.10;99.90;;;;;;4991348;28;20242;-81
2021/08/15 05:08:20;;;;;;;4.07;3.10;;;14.30;99.90;;;;;;4991305;28;20263;-78
2021/08/15 05:10:45;;;;;;;3.33;2.40;;;14.50;99.90;;;;;;4991394;28;20186;-78
2021/08/15 05:13:11;;;;;;;4.45;2.67;;;14.60;99.90;;;;;;4991859;28;20192;-80
2021/08/15 05:15:37;;;;;;;3.72;2.63;;;14.70;99.90;;;;;;4989340;28;20247;-79
2021/08/15 05:18:02;;;;;;;4.90;2.58;;;14.80;99.90;;;;;;4991433;28;20303;-80
2021/08/15 05:20:29;;;;;;;4.30;2.78;;;15.00;99.90;;;;;;4989257;28;20196;-80
2021/08/15 05:22:57;;;;;;;6.00;3.22;;;15.20;99.90;;;;;;4990870;28;20534;-81
2021/08/15 05:25:23;;;;;;;3.75;2.78;;;15.40;99.90;;;;;;4990717;28;20173;-80
2021/08/15 05:27:48;;;;;;;4.80;3.08;;;15.60;99.90;;;;;;5005958;28;20211;-80
2021/08/15 05:30:14;;;;;;;4.90;3.03;;;15.80;99.90;;;;;;4990776;28;20184;-81
2021/08/15 05:32:39;;;;;;;5.07;3.20;;;15.90;99.90;;;;;;4989534;28;20210;-79
2021/08/15 05:35:05;;;;;;;4.45;2.35;;;16.00;99.90;;;;;;4990883;28;20192;-80
2021/08/15 05:37:31;;;;;;;5.68;3.08;;;16.10;99.90;;;;;;4992882;28;20224;-78
2021/08/15 05:39:56;;;;;;;3.65;2.35;;;16.40;99.90;;;;;;4987719;28;20188;-79
2021/08/15 05:42:22;;;;;;;4.72;2.53;;;16.70;99.90;;;;;;4990974;28;20180;-80
2021/08/15 05:44:48;;;;;;;4.53;3.05;;;16.80;99.90;;;;;;4990674;28;20215;-79
2021/08/15 05:47:14;;;;;;;5.53;2.72;;;16.90;99.90;;;;;;4988695;28;20200;-80
2021/08/15 05:49:39;;;;;;;6.53;3.72;;;17.00;99.90;;;;;;4989021;28;20246;-79
2021/08/15 05:52:05;;;;;;;4.97;2.90;;;17.00;99.90;;;;;;4989177;28;20184;-81
2021/08/15 05:54:30;;;;;;;4.80;3.10;;;17.00;99.90;;;;;;4990114;28;20251;-81
2021/08/15 05:56:56;;;;;;;6.28;2.70;;;17.10;99.90;;;;;;4989239;28;20209;-78
2021/08/15 05:59:22;;;;;;;4.38;2.92;;;17.30;99.90;;;;;;4989335;28;20222;-82
2021/08/15 06:01:47;;;;;;;3.28;2.33;;;17.40;99.90;;;;;;4990929;28;20180;-80
2021/08/15 06:04:13;;;;;;;4.43;2.80;;;17.40;99.90;;;;;;4989527;28;20612;-79
2021/08/15 06:06:39;;;;;;;4.07;2.60;;;17.40;99.90;;;;;;4991571;28;20180;-79
2021/08/15 06:09:04;;;;;;;3.83;2.60;;;17.50;99.90;;;;;;4988434;28;20560;-79
2021/08/15 06:11:30;;;;;;;5.68;2.83;;;17.50;99.90;;;;;;4989127;28;20188;-79
2021/08/15 06:13:57;;;;;;;3.53;2.22;;;17.80;99.90;;;;;;4985352;28;20422;-78
2021/08/15 06:16:24;;;;;;;5.30;2.70;;;18.40;99.90;;;;;;4987768;28;20271;-79
2021/08/15 06:18:50;;;;;;;4.38;2.50;;;18.80;99.90;;;;;;4989424;28;20871;-78
2021/08/15 06:21:16;;;;;;;4.35;2.67;;;19.10;99.90;;;;;;4992668;28;20365;-80
2021/08/15 06:23:41;;;;;;;6.95;2.90;;;19.60;99.90;;;;;;4988775;28;20671;-79
2021/08/15 06:26:07;;;;;;;3.92;2.42;;;20.10;99.90;;;;;;4990023;28;20192;-78
2021/08/15 06:28:33;;;;;;;6.95;3.25;;;20.60;99.90;;;;;;4988475;28;20366;-80
2021/08/15 06:30:59;;;;;;;5.25;2.40;;;20.80;99.90;;;;;;4990170;28;20220;-78
2021/08/15 06:33:25;;;;;;;3.92;2.63;;;21.00;99.90;;;;;;4988131;28;20188;-80
2021/08/15 06:35:50;;;;;;;5.95;2.90;;;20.90;99.90;;;;;;4987245;28;20271;-77
2021/08/15 06:38:16;;;;;;;5.15;2.67;;;21.00;99.90;;;;;;4989646;28;20216;-78
2021/08/15 06:40:42;;;;;;;4.18;2.55;;;21.40;99.90;;;;;;4991382;28;21155;-78
2021/08/15 06:43:09;;;;;;;8.27;2.78;;;21.40;99.90;;;;;;4990256;28;20426;-79
2021/08/15 06:45:35;;;;;;;6.28;2.75;;;21.30;99.90;;;;;;4992330;28;20219;-77
2021/08/15 06:48:00;;;;;;;4.97;2.60;;;21.00;99.90;;;;;;4991737;28;20287;-79
2021/08/15 06:50:26;;;;;;;3.55;2.33;;;21.00;99.90;;;;;;4991473;28;20220;-78
2021/08/15 06:52:51;;;;;;;4.45;2.75;;;20.80;99.90;;;;;;4990703;28;20636;-80
2021/08/15 06:55:17;;;;;;;4.10;2.47;;;20.70;99.90;;;;;;4992864;28;20223;-77
2021/08/15 06:57:43;;;;;;;4.47;2.90;;;20.30;99.90;;;;;;4994026;28;20238;-79
2021/08/15 07:00:09;;;;;;;7.82;3.22;;;20.20;99.90;;;;;;4992932;28;20184;-77
2021/08/15 07:02:39;;;;;;;6.47;2.78;;;20.20;99.90;;;;;;4994178;28;20270;-77
2021/08/15 07:05:07;;;;;;;3.50;2.13;;;20.20;99.90;;;;;;4994218;28;20180;-77
2021/08/15 07:07:32;;;;;;;5.00;3.08;;;20.00;99.90;;;;;;4991145;28;20212;-79
2021/08/15 07:09:58;;;;;;;4.00;2.63;;;20.00;99.90;;;;;;4992199;28;20184;-77
2021/08/15 07:12:24;;;;;;;4.80;2.50;;;20.10;99.90;;;;;;4993481;28;20214;-81
2021/08/15 07:14:49;;;;;;;6.65;2.40;;;20.30;99.90;;;;;;4996256;28;20196;-77
2021/08/15 07:17:15;;;;;;;4.32;2.35;;;20.30;99.90;;;;;;4992222;28;20690;-76
2021/08/15 07:19:40;;;;;;;4.07;2.50;;;20.50;99.90;;;;;;4988322;28;20246;-77
2021/08/15 07:22:06;;;;;;;4.22;3.10;;;20.60;99.90;;;;;;4986159;28;20183;-80
2021/08/15 07:24:32;;;;;;;3.35;2.42;;;20.80;99.90;;;;;;4988044;28;20226;-78
2021/08/15 07:26:58;;;;;;;4.93;2.78;;;21.10;99.90;;;;;;4987601;28;20552;-79
2021/08/15 07:29:24;;;;;;;4.00;2.25;;;21.30;99.90;;;;;;4987515;28;21061;-80
2021/08/15 07:31:50;;;;;;;4.78;3.28;;;21.50;99.90;;;;;;4985473;28;20192;-80
2021/08/15 07:34:16;;;;;;;4.00;2.50;;;21.80;99.90;;;;;;4984749;28;20188;-81
2021/08/15 07:36:41;;;;;;;6.22;2.70;;;21.90;99.90;;;;;;4985543;28;20693;-81
2021/08/15 07:39:07;;;;;;;2.92;2.42;;;21.90;99.90;;;;;;4986648;28;20211;-78
2021/08/15 07:41:33;;;;;;;3.80;2.58;;;21.90;99.90;;;;;;4986638;28;20187;-79
2021/08/15 07:43:58;;;;;;;5.00;2.78;;;21.80;99.90;;;;;;4986575;28;20183;-78
2021/08/15 07:46:24;;;;;;;5.35;2.60;;;21.90;99.90;;;;;;4987119;28;20188;-76
2021/08/15 07:48:49;;;;;;;3.70;2.38;;;22.10;99.90;;;;;;4987536;28;20204;-76
2021/08/15 07:51:15;;;;;;;5.57;2.85;;;22.40;99.90;;;;;;4984027;28;20689;-75
2021/08/15 07:53:40;;;;;;;3.97;2.17;;;22.70;99.90;;;;;;4983155;28;20220;-78
2021/08/15 07:56:06;;;;;;;4.45;2.35;;;22.80;99.90;;;;;;4982944;28;20216;-77
2021/08/15 07:58:31;;;;;;;3.42;2.30;;;22.70;99.90;;;;;;4984222;28;20224;-79
2021/08/15 08:00:58;;;;;;;4.30;3.05;;;22.80;99.90;;;;;;4983450;28;20189;-77
2021/08/15 08:03:24;;;;;;;5.18;2.92;;;22.80;99.90;;;;;;4983925;28;20180;-79
2021/08/15 08:05:50;;;;;;;4.03;3.30;;;22.80;99.90;;;;;;4988291;28;20198;-79
2021/08/15 08:08:16;;;;;;;4.15;2.45;;;22.80;99.90;;;;;;4989746;28;20674;-77
2021/08/15 08:10:42;;;;;;;3.78;2.70;;;22.90;99.90;;;;;;4990573;28;20188;-77
2021/08/15 08:13:09;;;;;;;4.32;2.58;;;22.90;99.90;;;;;;4991248;28;20192;-76
2021/08/15 08:15:36;;;;;;;6.30;3.22;;;22.90;99.90;;;;;;4991309;28;20192;-77
2021/08/15 08:18:02;;;;;;;4.78;2.90;;;23.10;99.90;;;;;;4990626;28;20224;-76
2021/08/15 08:20:32;;;;;;;3.60;2.28;;;23.20;99.90;;;;;;4989900;28;20208;-78
2021/08/15 08:22:58;;;;;;;4.25;2.50;;;23.40;99.90;;;;;;4989624;28;20713;-77
2021/08/15 08:25:23;;;;;;;4.35;2.40;;;23.60;99.90;;;;;;4990567;28;20188;-78
2021/08/15 08:27:49;;;;;;;4.95;3.25;;;23.70;99.90;;;;;;4991021;28;21025;-76
2021/08/15 08:30:14;;;;;;;3.88;2.45;;;23.70;99.90;;;;;;4988858;28;20188;-77
2021/08/15 08:32:40;;;;;;;4.70;2.67;;;23.90;99.90;;;;;;4990502;28;20523;-78
2021/08/15 08:35:06;;;;;;;4.43;2.60;;;24.20;99.90;;;;;;4990091;28;20192;-77
2021/08/15 08:37:32;;;;;;;4.80;2.75;;;24.30;99.90;;;;;;4990041;28;20227;-77
2021/08/15 08:39:59;;;;;;;4.90;2.60;;;24.30;99.90;;;;;;4991217;28;20180;-78
2021/08/15 08:42:27;;;;;;;3.45;2.60;;;24.30;99.90;;;;;;4990728;28;20390;-77
2021/08/15 08:44:56;;;;;;;8.52;2.28;;;24.20;99.90;;;;;;4989854;28;20191;-77
2021/08/15 08:47:22;;;;;;;5.18;2.90;;;23.90;99.90;;;;;;4989704;28;20215;-78
2021/08/15 08:49:48;;;;;;;6.45;2.63;;;24.00;99.90;;;;;;4990551;28;20198;-77
2021/08/15 08:52:15;;;;;;;3.97;2.70;;;23.80;99.90;;;;;;4987932;28;20667;-79
2021/08/15 08:54:40;;;;;;;3.85;2.30;;;23.80;99.90;;;;;;4990148;28;20267;-77
2021/08/15 08:57:06;;;;;;;5.72;2.85;;;23.80;99.90;;;;;;4989935;28;20311;-75
2021/08/15 08:59:36;;;;;;;4.22;2.67;;;23.70;99.90;;;;;;4990437;28;20234;-76
2021/08/15 09:02:02;;;;;;;4.47;2.90;;;23.70;99.90;;;;;;4990187;28;20181;-76
2021/08/15 09:04:27;;;;;;;4.18;2.22;;;23.70;99.90;;;;;;4989754;28;20676;-78
2021/08/15 09:06:53;;;;;;;3.08;2.28;;;23.90;99.90;;;;;;4989279;28;20498;-77
2021/08/15 09:09:20;;;;;;;3.60;2.40;;;24.00;99.90;;;;;;4990088;28;20227;-77
2021/08/15 09:11:48;;;;;;;4.35;2.42;;;24.30;99.90;;;;;;4989600;28;20219;-79
2021/08/15 09:14:20;;;;;;;4.75;2.47;;;24.20;99.90;;;;;;4988934;28;20601;-77
2021/08/15 09:17:08;;;;;;;3.75;2.30;;;24.30;99.90;;;;;;4987025;28;20663;-78
2021/08/15 09:19:41;;;;;;;2.97;1.90;;;24.50;99.90;;;;;;4989688;28;20648;-77
2021/08/15 09:22:20;;;;;;;4.32;2.60;;;24.60;99.90;;;;;;4989636;28;20192;-77
2021/08/15 09:24:56;;;;;;;3.28;2.53;;;24.70;99.90;;;;;;4989551;28;20199;-77
2021/08/15 09:27:37;;;;;;;5.40;3.13;;;24.50;99.90;;;;;;4988680;28;20208;-76
2021/08/15 09:30:10;;;;;;;3.85;1.95;;;24.50;99.90;;;;;;4989340;28;20195;-78
2021/08/15 09:32:43;;;;;;;4.40;2.78;;;24.20;99.90;;;;;;4989327;28;20212;-77
2021/08/15 09:35:09;;;;;;;5.25;2.55;;;24.30;99.90;;;;;;4987946;28;20230;-77
2021/08/15 09:37:36;;;;;;;5.47;3.28;;;24.70;99.90;;;;;;4988853;28;20231;-77
2021/08/15 09:40:24;;;;;;;3.85;2.22;;;24.60;99.90;;;;;;4989178;28;20243;-76
2021/08/15 09:42:50;;;;;;;4.82;2.80;;;24.50;99.90;;;;;;4989121;28;20184;-77
2021/08/15 09:45:30;;;;;;;4.18;2.35;;;24.70;99.90;;;;;;4988875;28;20707;-77
2021/08/15 09:47:56;;;;;;;4.25;2.97;;;25.00;99.90;;;;;;4988730;28;20215;-77
2021/08/15 09:50:23;;;;;;;3.47;2.33;;;25.30;99.90;;;;;;4989624;28;20192;-78
2021/08/15 09:52:49;;;;;;;3.40;2.47;;;25.50;99.90;;;;;;4987156;28;20212;-75
2021/08/15 09:55:16;;;;;;;4.10;2.33;;;25.50;99.90;;;;;;4988692;28;20195;-76
2021/08/15 09:57:42;;;;;;;6.55;2.67;;;25.50;99.90;;;;;;4986879;28;20223;-77
2021/08/15 10:00:20;;;;;;;4.18;2.72;;;25.50;99.90;;;;;;4987401;28;20184;-77
2021/08/15 10:02:47;;;;;;;4.57;2.85;;;25.40;99.90;;;;;;4984916;28;20242;-77
2021/08/15 10:05:12;;;;;;;3.80;2.28;;;25.40;99.90;;;;;;4985324;28;20345;-77
2021/08/15 10:07:39;;;;;;;3.17;2.03;;;25.50;99.90;;;;;;4988364;28;20302;-77
2021/08/15 10:10:05;;;;;;;3.17;2.30;;;25.90;99.90;;;;;;4989165;28;20246;-79
2021/08/15 10:12:32;;;;;;;4.13;2.40;;;26.30;99.90;;;;;;4988751;28;20558;-77
2021/08/15 10:14:58;;;;;;;4.10;2.40;;;26.50;99.90;;;;;;4988235;28;20216;-77
2021/08/15 10:17:29;;;;;;;2.08;1.88;;;26.70;99.90;;;;;;4988017;28;20220;-77
2021/08/15 10:19:59;;;;;;;2.20;1.90;;;27.00;99.90;;;;;;4988792;28;20240;-78
2021/08/15 10:22:28;;;;;;;2.47;2.00;;;26.80;99.90;;;;;;4988406;28;20283;-77
2021/08/15 10:24:56;;;;;;;4.25;2.00;;;27.10;99.90;;;;;;4987656;28;20558;-77
2021/08/15 10:27:40;;;;;;;2.17;1.70;;;27.40;99.90;;;;;;4985800;28;20211;-76
2021/08/15 10:30:31;;;;;;;2.85;1.75;;;27.40;99.90;;;;;;4988244;28;20554;-77
2021/08/15 10:32:57;;;;;;;2.13;1.70;;;27.30;99.90;;;;;;4988261;28;20192;-77
2021/08/15 10:35:32;;;;;;;4.25;2.15;;;26.80;99.90;;;;;;4987661;28;20306;-77
2021/08/15 10:38:09;;;;;;;4.85;2.20;;;26.30;99.90;;;;;;4987668;28;20222;-77
2021/08/15 10:40:40;;;;;;;5.50;2.45;;;26.10;99.90;;;;;;4988617;28;20187;-79
2021/08/15 10:43:09;;;;;;;2.55;2.08;;;26.00;99.90;;;;;;4988483;28;20690;-77
2021/08/15 10:45:36;;;;;;;3.08;2.30;;;25.70;99.90;;;;;;4986642;28;20192;-78
2021/08/15 10:48:12;;;;;;;4.22;2.28;;;25.70;99.90;;;;;;4987659;28;20209;-76
2021/08/15 10:50:42;;;;;;;4.55;2.30;;;25.60;99.90;;;;;;4986990;28;20293;-76
2021/08/15 10:53:26;;;;;;;3.47;2.50;;;25.80;99.90;;;;;;4987893;28;20188;-76
2021/08/15 10:55:53;;;;;;;5.78;2.70;;;26.50;99.90;;;;;;4987208;28;20242;-77
2021/08/15 10:58:41;;;;;;;3.33;2.55;;;26.90;99.90;;;;;;4987706;28;20207;-76
2021/08/15 11:01:09;;;;;;;3.53;2.40;;;27.20;99.90;;;;;;4987447;28;20802;-76
2021/08/15 11:03:37;;;;;;;3.45;2.70;;;27.30;99.90;;;;;;4987771;28;20180;-77
2021/08/15 11:06:04;;;;;;;3.53;2.65;;;26.90;99.90;;;;;;4986119;28;20206;-79
2021/08/15 11:08:33;;;;;;;2.05;1.85;;;26.70;99.90;;;;;;4987548;28;20204;-77
2021/08/15 11:11:06;;;;;;;2.40;2.05;;;26.60;99.90;;;;;;4987251;28;20191;-77
2021/08/15 11:13:33;;;;;;;3.45;2.13;;;26.50;99.90;;;;;;4985665;28;20192;-77
2021/08/15 11:16:27;;;;;;;2.67;2.15;;;26.20;99.90;;;;;;4987019;28;20243;-77
2021/08/15 11:19:07;;;;;;;2.40;2.20;;;26.10;99.90;;;;;;4987319;28;20211;-76
2021/08/15 11:22:04;;;;;;;3.55;2.33;;;25.70;99.90;;;;;;4987648;28;20214;-75
2021/08/15 11:24:36;;;;;;;3.22;2.03;;;25.80;99.90;;;;;;4986905;28;20658;-77
2021/08/15 11:27:02;;;;;;;3.30;2.28;;;26.00;99.90;;;;;;4986467;28;20188;-76
2021/08/15 11:29:28;;;;;;;2.45;1.55;;;26.10;99.90;;;;;;4987153;28;20192;-77
2021/08/15 11:31:55;;;;;;;2.28;1.90;;;26.20;99.90;;;;;;4986617;28;20688;-76
2021/08/15 11:34:21;;;;;;;3.15;2.00;;;26.40;99.90;;;;;;4986033;28;20666;-77
2021/08/15 11:37:04;;;;;;;2.40;2.00;;;26.60;99.90;;;;;;4985887;28;20291;-77
2021/08/15 11:39:37;;;;;;;1.92;1.60;;;26.50;99.90;;;;;;4984972;28;20271;-76
2021/08/15 11:42:05;;;;;;;3.25;1.58;;;26.40;99.90;;;;;;4984779;28;20192;-78
2021/08/15 11:44:58;;;;;;;2.47;1.40;;;26.30;99.90;;;;;;4985314;28;20188;-77
2021/08/15 11:47:32;;;;;;;2.22;1.33;;;26.50;99.90;;;;;;4985703;28;20580;-77
2021/08/15 11:50:01;;;;;;;1.92;1.52;;;26.70;99.90;;;;;;4984691;28;20187;-77
2021/08/15 11:52:36;;;;;;;2.03;1.30;;;27.10;99.90;;;;;;4985978;28;20196;-78
2021/08/15 11:55:10;;;;;;;2.22;1.42;;;27.40;99.90;;;;;;4984089;28;20669;-78
2021/08/15 11:57:48;;;;;;;2.30;1.67;;;27.80;99.90;;;;;;4986067;28;20220;-77
2021/08/15 12:00:15;;;;;;;3.80;1.77;;;27.80;99.90;;;;;;4984732;28;20280;-75
2021/08/15 12:02:40;;;;;;;2.35;1.58;;;28.00;99.90;;;;;;4984137;28;20187;-77
2021/08/15 12:05:08;;;;;;;2.30;1.50;;;28.20;99.20;;;;;;4985956;28;20192;-77
2021/08/15 12:07:34;;;;;;;3.28;1.73;;;28.40;98.20;;;;;;4985100;28;20247;-76
2021/08/15 12:10:24;;;;;;;2.58;1.63;;;28.30;98.80;;;;;;4985465;28;20235;-76
2021/08/15 12:13:13;;;;;;;2.75;1.55;;;28.10;99.00;;;;;;4984233;28;20532;-76
2021/08/15 12:15:40;;;;;;;2.05;1.58;;;28.20;99.20;;;;;;4986136;28;20192;-76
2021/08/15 12:18:06;;;;;;;2.53;1.80;;;28.30;99.50;;;;;;4986177;28;20299;-77
2021/08/15 12:20:44;;;;;;;3.30;2.00;;;28.30;98.30;;;;;;4986563;28;20317;-76
2021/08/15 12:23:09;;;;;;;1.95;1.65;;;28.60;97.40;;;;;;4985868;28;20195;-77
2021/08/15 12:25:35;;;;;;;2.97;1.92;;;28.60;97.00;;;;;;4986430;28;20188;-77
2021/08/15 12:28:14;;;;;;;2.10;1.80;;;28.50;97.00;;;;;;4985647;28;20204;-77
2021/08/15 12:30:40;;;;;;;2.47;1.75;;;28.30;97.40;;;;;;4985780;28;20207;-77
2021/08/15 12:33:25;;;;;;;1.80;1.50;;;28.20;97.60;;;;;;4985852;28;20275;-77
2021/08/15 12:35:51;;;;;;;2.92;1.90;;;28.30;98.50;;;;;;4985179;28;20204;-76
2021/08/15 12:38:30;;;;;;;1.52;1.33;;;28.50;97.30;;;;;;4983863;28;20208;-76
2021/08/15 12:41:16;;;;;;;2.83;1.70;;;28.70;96.70;;;;;;4984137;28;20188;-76
2021/08/15 12:43:41;;;;;;;2.45;1.48;;;28.90;96.00;;;;;;4984554;28;20242;-76
2021/08/15 12:46:23;;;;;;;1.90;1.67;;;29.00;94.90;;;;;;4982790;28;20404;-76
2021/08/15 12:48:49;;;;;;;1.92;1.73;;;29.20;95.40;;;;;;4986107;28;20227;-77
2021/08/15 12:51:20;;;;;;;3.60;1.70;;;29.20;94.80;;;;;;4988161;28;20192;-77